Time;durP1;ratioP1;P1;durP2;ratioP2;P2;SDS_P1;SDS_P2;PMS_P1;PMS_P2;Temp;Humidity;BMP_temperature;BMP_pressure;BME280_temperature;BME280_humidity;BME280_pressure;Samples;Min_cycle;Max_cycle;Signal;HPM_P1;HPM_P2
2024/01/29 00:01:15;;;;;;;6.30;3.10;;;;;;;2.62;100.00;101654.34;5086149;28;20641;-76
2024/01/29 00:03:45;;;;;;;7.10;2.87;;;;;;;2.55;100.00;101682.31;5084026;28;20445;-77
2024/01/29 00:06:15;;;;;;;5.47;2.30;;;;;;;2.02;100.00;101623.00;5086093;28;20447;-76
2024/01/29 00:08:45;;;;;;;6.83;2.30;;;;;;;2.12;100.00;101561.41;5083521;28;20547;-76
2024/01/29 00:11:11;;;;;;;5.57;2.60;;;;;;;2.38;100.00;101631.56;5087494;28;20529;-76
2024/01/29 00:13:38;;;;;;;8.63;2.43;;;;;;;3.81;100.00;101908.69;5086275;28;20539;-76
2024/01/29 00:16:04;;;;;;;6.37;2.30;;;;;;;2.83;100.00;101707.34;5067420;28;20587;-76
2024/01/29 00:18:30;;;;;;;5.20;2.40;;;;;;;2.90;100.00;101735.88;5067740;28;20478;-76
2024/01/29 00:20:58;;;;;;;5.70;2.57;;;;;;;2.44;100.00;101672.59;5084519;28;20448;-76
2024/01/29 00:23:31;;;;;;;6.20;2.50;;;;;;;2.26;100.00;101633.41;5086040;28;20190;-76
2024/01/29 00:26:02;;;;;;;5.77;2.30;;;;;;;3.00;100.00;101729.81;5084407;28;20447;-77
2024/01/29 00:28:30;;;;;;;4.77;2.60;;;;;;;2.43;100.00;101645.28;5082364;28;20495;-76
2024/01/29 00:31:03;;;;;;;6.10;2.23;;;;;;;4.16;100.00;101902.19;5083587;28;20440;-77
2024/01/29 00:33:33;;;;;;;6.30;2.93;;;;;;;3.28;100.00;101815.84;5084448;28;20508;-76
2024/01/29 00:36:05;;;;;;;5.80;2.60;;;;;;;2.21;100.00;101627.66;5086043;28;20440;-76
2024/01/29 00:38:50;;;;;;;5.43;2.80;;;;;;;3.20;100.00;101771.41;5081752;28;20463;-76
2024/01/29 00:41:27;;;;;;;6.10;2.37;;;;;;;3.49;100.00;101847.69;5087944;28;20435;-76
2024/01/29 00:44:06;;;;;;;6.07;2.23;;;;;;;3.42;100.00;101831.47;5086932;28;20803;-76
2024/01/29 00:46:48;;;;;;;5.80;2.80;;;;;;;3.28;100.00;101790.16;5087624;28;20428;-76
2024/01/29 00:49:18;;;;;;;5.73;2.50;;;;;;;3.53;100.00;101809.31;5067226;28;20559;-76
2024/01/29 00:51:52;;;;;;;5.83;2.73;;;;;;;3.35;100.00;101778.06;5087757;28;20805;-76
2024/01/29 00:54:22;;;;;;;6.10;2.80;;;;;;;4.49;100.00;101997.63;5087739;28;20431;-76
2024/01/29 00:56:52;;;;;;;6.27;3.23;;;;;;;3.68;100.00;101865.59;5087495;28;20765;-76
2024/01/29 00:59:20;;;;;;;6.30;2.60;;;;;;;3.01;100.00;101736.78;5086931;28;20881;-77
2024/01/29 01:01:55;;;;;;;4.70;2.47;;;;;;;2.33;100.00;101627.63;5086621;28;20438;-76
2024/01/29 01:04:26;;;;;;;5.63;2.63;;;;;;;3.31;100.00;101826.19;5084452;28;24102;-76
2024/01/29 01:06:56;;;;;;;11.70;2.80;;;;;;;3.50;100.00;101836.97;5083449;28;20504;-77
2024/01/29 01:09:26;;;;;;;6.87;2.77;;;;;;;3.08;100.00;101767.13;5083066;28;20559;-76
2024/01/29 01:11:57;;;;;;;6.37;3.13;;;;;;;4.06;100.00;101940.16;5069277;28;20451;-76
2024/01/29 01:14:25;;;;;;;13.00;2.90;;;;;;;3.10;100.00;101758.09;5069682;28;20805;-77
2024/01/29 01:16:53;;;;;;;5.90;2.80;;;;;;;4.44;100.00;101985.69;5085994;28;20540;-76
2024/01/29 01:19:26;;;;;;;5.30;2.50;;;;;;;3.16;100.00;101791.19;5084879;28;20488;-76
2024/01/29 01:21:56;;;;;;;5.20;2.70;;;;;;;3.28;100.00;101782.22;5088830;28;20975;-76
2024/01/29 01:24:22;;;;;;;6.20;2.53;;;;;;;2.98;100.00;101769.72;5086868;28;20440;-76
2024/01/29 01:26:56;;;;;;;10.30;2.97;;;;;;;5.27;100.00;102135.47;5089556;28;20470;-76
2024/01/29 01:29:34;;;;;;;5.80;2.67;;;;;;;3.68;100.00;101870.88;5088051;28;20293;-76
2024/01/29 01:32:04;;;;;;;6.67;2.80;;;;;;;5.25;100.00;102122.28;5085981;28;20505;-77
2024/01/29 01:37:37;;;;;;;6.50;2.93;;;;;;;3.26;100.00;101810.66;5096104;27;20561;-76
2024/01/29 01:40:05;;;;;;;5.17;2.30;;;;;;;3.50;100.00;101838.75;5093563;28;20451;-76
2024/01/29 01:42:44;;;;;;;7.37;2.70;;;;;;;4.64;100.00;102047.78;5092425;28;20796;-76
2024/01/29 01:45:16;;;;;;;6.20;3.03;;;;;;;4.28;100.00;102013.56;5095231;28;20491;-76
2024/01/29 01:47:47;;;;;;;7.40;3.27;;;;;;;2.56;100.00;101708.66;5089995;28;20860;-76
2024/01/29 01:50:15;;;;;;;8.17;2.97;;;;;;;3.95;100.00;101923.44;5068510;28;20446;-76
2024/01/29 01:52:43;;;;;;;5.57;2.70;;;;;;;3.97;100.00;101945.41;5075025;28;20440;-76
2024/01/29 01:55:17;;;;;;;6.37;2.53;;;;;;;4.30;100.00;101985.03;5093735;28;20447;-76
2024/01/29 01:57:45;;;;;;;6.67;3.60;;;;;;;2.67;100.00;101692.72;5092624;28;20462;-76
2024/01/29 02:00:11;;;;;;;6.70;2.40;;;;;;;3.52;100.00;101850.09;5089301;28;20436;-76
2024/01/29 02:02:40;;;;;;;7.90;2.87;;;;;;;2.76;100.00;101744.13;5088833;28;20436;-76
2024/01/29 02:05:08;;;;;;;8.60;2.80;;;;;;;4.03;100.00;101959.00;5073300;28;20543;-76
2024/01/29 02:07:36;;;;;;;7.40;2.80;;;;;;;2.47;100.00;101659.94;5092167;28;20495;-76
2024/01/29 02:10:04;;;;;;;5.00;2.53;;;;;;;4.47;100.00;102033.25;5089026;28;20475;-76
2024/01/29 02:12:34;;;;;;;7.90;3.00;;;;;;;2.86;100.00;101742.38;5077206;28;20513;-76
2024/01/29 02:15:03;;;;;;;8.13;3.00;;;;;;;4.01;100.00;101947.66;5074926;28;20443;-76
2024/01/29 02:17:37;;;;;;;6.77;2.80;;;;;;;3.65;100.00;101871.16;5078451;28;20511;-75
2024/01/29 02:20:09;;;;;;;4.90;2.50;;;;;;;3.98;100.00;101933.81;5092584;28;20487;-76
2024/01/29 02:22:48;;;;;;;6.37;2.70;;;;;;;3.53;100.00;101852.63;5091857;28;20800;-76
2024/01/29 02:25:16;;;;;;;7.70;3.37;;;;;;;4.40;100.00;102016.16;5088650;28;20737;-77
2024/01/29 02:27:49;;;;;;;5.87;2.80;;;;;;;2.66;100.00;101724.63;5089786;28;20459;-76
2024/01/29 02:30:29;;;;;;;;;;;;;;;;;;;;;
2024/01/29 02:32:59;;;;;;;6.73;3.03;;;;;;;3.58;100.00;101865.50;5091942;28;20952;-76
2024/01/29 02:35:31;;;;;;;7.03;3.00;;;;;;;3.42;100.00;101806.75;5091268;28;20450;-76
2024/01/29 02:38:09;;;;;;;5.87;3.27;;;;;;;2.24;100.00;101632.69;5087812;28;20511;-76
2024/01/29 02:40:39;;;;;;;7.20;2.97;;;;;;;3.95;100.00;101891.59;5095640;28;20484;-76
2024/01/29 02:43:10;;;;;;;7.10;3.37;;;;;;;2.85;100.00;101713.38;5082794;28;20441;-76
2024/01/29 02:45:38;;;;;;;8.70;3.40;;;;;;;2.85;100.00;101753.94;5096006;28;20543;-75
2024/01/29 02:48:07;;;;;;;7.53;3.10;;;;;;;2.83;100.00;101745.28;5065647;28;20461;-76
2024/01/29 02:50:37;;;;;;;8.23;3.80;;;;;;;4.00;100.00;101921.25;5080428;28;20448;-76
2024/01/29 02:53:08;;;;;;;6.87;3.23;;;;;;;3.52;100.00;101872.16;5075124;28;20440;-76
2024/01/29 02:55:41;;;;;;;8.10;3.07;;;;;;;2.75;100.00;101754.81;5078841;28;20439;-76
2024/01/29 02:58:12;;;;;;;5.10;2.70;;;;;;;2.51;100.00;101671.13;5061121;28;20458;-76
2024/01/29 03:00:43;;;;;;;6.53;2.83;;;;;;;3.38;100.00;101862.69;5063028;28;20959;-76
2024/01/29 03:03:13;;;;;;;6.37;2.93;;;;;;;4.47;100.00;101993.41;5078754;28;20513;-76
2024/01/29 03:05:43;;;;;;;9.67;2.97;;;;;;;3.37;100.00;101836.28;5079663;28;20475;-76
2024/01/29 03:08:13;;;;;;;6.30;2.90;;;;;;;2.92;100.00;101768.41;5077597;28;20511;-76
2024/01/29 03:10:40;;;;;;;6.30;2.90;;;;;;;2.52;100.00;101701.06;5076758;28;20427;-77
2024/01/29 03:13:10;;;;;;;8.07;3.20;;;;;;;2.76;100.00;101765.31;5064053;28;20508;-76
2024/01/29 03:15:38;;;;;;;5.07;2.97;;;;;;;2.85;100.00;101769.84;5082275;28;20467;-76
2024/01/29 03:18:07;;;;;;;6.37;2.90;;;;;;;4.35;100.00;101986.47;5073637;28;20480;-76
2024/01/29 03:20:37;;;;;;;5.63;3.07;;;;;;;1.79;100.00;101614.28;5078118;28;20421;-75
2024/01/29 03:23:11;;;;;;;5.90;2.60;;;;;;;3.27;100.00;101833.56;5078051;28;20436;-75
2024/01/29 03:25:41;;;;;;;7.03;3.30;;;;;;;3.49;100.00;101863.59;5078327;28;21018;-76
2024/01/29 03:28:14;;;;;;;7.33;3.20;;;;;;;4.40;100.00;102024.97;5077937;28;20590;-76
2024/01/29 03:30:45;;;;;;;7.80;3.27;;;;;;;3.94;100.00;101961.59;5078456;28;20973;-76
2024/01/29 03:33:12;;;;;;;6.63;2.73;;;;;;;4.04;100.00;101955.38;5079043;28;20424;-76
2024/01/29 03:35:40;;;;;;;5.47;2.73;;;;;;;3.51;100.00;101866.97;5075658;28;20472;-77
2024/01/29 03:38:16;;;;;;;;;;;;;;;;;;;;;
2024/01/29 03:40:46;;;;;;;7.00;3.17;;;;;;;3.54;100.00;101923.28;5063995;27;1314003;-76
2024/01/29 03:43:19;;;;;;;8.37;3.20;;;;;;;3.50;100.00;101902.41;5067171;28;20851;-76
2024/01/29 03:48:46;;;;;;;6.73;3.10;;;;;;;2.13;100.00;101669.78;5053089;28;20542;-73
2024/01/29 03:51:19;;;;;;;6.37;3.30;;;;;;;2.68;100.00;101704.16;5047954;28;20445;-73
2024/01/29 03:53:49;;;;;;;6.23;3.57;;;;;;;2.02;100.00;101646.81;5045765;28;20422;-74
2024/01/29 03:56:19;;;;;;;5.13;2.57;;;;;;;2.08;100.00;101624.31;5049729;28;20941;-76
2024/01/29 03:58:51;;;;;;;6.87;3.47;;;;;;;3.32;100.00;101831.34;5041423;28;20524;-76
2024/01/29 04:01:33;;;;;;;6.77;3.10;;;;;;;5.05;100.00;102092.06;5047551;28;20437;-76
2024/01/29 04:04:11;;;;;;;7.57;3.07;;;;;;;3.40;100.00;101847.47;5045028;28;21112;-76
2024/01/29 04:06:43;;;;;;;6.97;3.27;;;;;;;2.74;100.00;101726.66;5049697;28;20472;-76
2024/01/29 04:09:20;;;;;;;5.77;2.70;;;;;;;3.82;100.00;101907.72;5047844;28;20434;-76
2024/01/29 04:11:50;;;;;;;9.00;3.27;;;;;;;4.11;100.00;101928.28;5046342;28;20436;-76
2024/01/29 04:14:19;;;;;;;7.10;3.07;;;;;;;2.80;100.00;101697.00;5047798;28;20442;-76
2024/01/29 04:16:52;;;;;;;6.53;3.17;;;;;;;4.00;100.00;101876.13;5045329;28;20473;-76
2024/01/29 04:19:22;;;;;;;6.60;2.90;;;;;;;3.22;100.00;101789.84;5046400;28;20485;-76
2024/01/29 04:21:58;;;;;;;6.60;3.40;;;;;;;3.49;100.00;101814.03;5050776;28;20425;-75
2024/01/29 04:24:28;;;;;;;7.33;3.40;;;;;;;2.81;100.00;101688.94;5046873;28;20476;-76
2024/01/29 04:26:56;;;;;;;7.07;3.60;;;;;;;2.72;100.00;101679.13;5053210;28;20454;-75
2024/01/29 04:29:29;;;;;;;6.17;3.17;;;;;;;2.31;100.00;101611.84;5044031;28;20958;-76
2024/01/29 04:31:59;;;;;;;5.30;3.00;;;;;;;2.26;100.00;101603.47;5047689;28;20437;-76
2024/01/29 04:34:32;;;;;;;7.20;2.87;;;;;;;2.84;100.00;101688.69;5043897;28;20549;-76
2024/01/29 04:37:02;;;;;;;8.97;3.40;;;;;;;2.41;100.00;101596.06;5045584;28;20480;-76
2024/01/29 04:39:32;;;;;;;5.73;2.90;;;;;;;2.30;100.00;101591.63;5044692;28;20440;-76
2024/01/29 04:42:00;;;;;;;6.80;3.03;;;;;;;3.70;100.00;101831.78;5043631;28;20437;-75
2024/01/29 04:44:31;;;;;;;5.50;2.60;;;;;;;3.94;100.00;101861.56;5047682;28;20568;-76
2024/01/29 04:47:02;;;;;;;7.70;3.40;;;;;;;3.60;100.00;101827.25;5046755;28;20437;-76
2024/01/29 04:49:30;;;;;;;7.60;3.47;;;;;;;3.77;100.00;101838.25;5043234;28;20424;-76
2024/01/29 04:52:00;;;;;;;6.67;3.20;;;;;;;3.22;100.00;101782.72;5046042;28;20464;-76
2024/01/29 04:54:31;;;;;;;6.93;3.00;;;;;;;3.69;100.00;101840.72;5044778;28;20431;-76
2024/01/29 04:57:11;;;;;;;6.77;3.83;;;;;;;2.28;100.00;101635.09;5044817;28;20554;-76
2024/01/29 04:59:43;;;;;;;7.30;3.53;;;;;;;3.87;100.00;101908.16;5031792;28;20446;-75
2024/01/29 05:02:13;;;;;;;13.43;4.07;;;;;;;2.79;100.00;101677.63;5025169;28;20460;-76
2024/01/29 05:04:42;;;;;;;6.40;3.40;;;;;;;2.59;100.00;101692.50;5032833;28;20448;-76
2024/01/29 05:10:17;;;;;;;6.00;3.20;;;;;;;2.44;100.00;101678.72;5067811;27;21069;-73
2024/01/29 05:12:49;;;;;;;6.07;2.90;;;;;;;2.45;100.00;101690.16;5058092;28;20646;-74
2024/01/29 05:15:28;;;;;;;;;;;;;;;;;;;;;
2024/01/29 05:17:56;;;;;;;7.50;3.00;;;;;;;3.01;100.00;101752.69;5058149;28;20461;-75
2024/01/29 05:20:24;;;;;;;7.23;3.97;;;;;;;2.70;100.00;101704.88;5064812;28;20491;-76
2024/01/29 05:22:49;;;;;;;7.40;3.20;;;;;;;2.59;100.00;101724.31;5060435;28;20821;-76
2024/01/29 05:25:17;;;;;;;5.20;3.13;;;;;;;1.30;100.00;101496.56;5062254;28;20444;-75
2024/01/29 05:27:45;;;;;;;8.60;3.70;;;;;;;1.62;100.00;101553.09;5060899;28;20618;-76
2024/01/29 05:30:16;;;;;;;6.23;3.70;;;;;;;2.19;100.00;101685.16;5059053;28;20430;-76
2024/01/29 05:32:46;;;;;;;10.47;4.00;;;;;;;2.79;100.00;101772.16;5060366;28;20433;-76
2024/01/29 05:35:17;;;;;;;6.90;3.50;;;;;;;4.41;100.00;102008.03;5060028;28;20726;-76
2024/01/29 05:37:50;;;;;;;6.10;3.50;;;;;;;2.68;100.00;101744.72;5060050;28;20449;-76
2024/01/29 05:40:20;;;;;;;6.10;3.67;;;;;;;3.21;100.00;101838.53;5063013;28;20442;-76
2024/01/29 05:42:52;;;;;;;5.80;2.80;;;;;;;2.69;100.00;101759.69;5063069;28;20443;-77
2024/01/29 05:45:29;;;;;;;7.00;3.53;;;;;;;3.29;100.00;101844.03;5061453;28;20488;-76
2024/01/29 05:48:04;;;;;;;8.17;3.33;;;;;;;2.94;100.00;101739.09;5055096;28;20477;-76
2024/01/29 05:50:31;;;;;;;8.60;3.50;;;;;;;1.70;100.00;101551.53;5063152;28;20424;-76
2024/01/29 05:52:59;;;;;;;10.53;4.80;;;;;;;2.68;100.00;101725.34;5069923;28;20461;-76
2024/01/29 05:55:36;;;;;;;8.40;3.60;;;;;;;3.62;100.00;101901.44;5066486;28;20442;-76
2024/01/29 05:58:07;;;;;;;6.73;3.60;;;;;;;3.53;100.00;101905.69;5061863;28;20483;-75
2024/01/29 06:00:37;;;;;;;7.80;3.13;;;;;;;4.39;100.00;101975.44;5064043;28;20809;-76
2024/01/29 06:03:10;;;;;;;8.00;3.27;;;;;;;3.87;100.00;101878.13;5063382;28;20433;-75
2024/01/29 06:05:46;;;;;;;9.10;3.83;;;;;;;3.93;100.00;101920.91;5057286;28;20467;-76
2024/01/29 06:08:24;;;;;;;6.40;3.43;;;;;;;2.42;100.00;101640.94;5065813;28;20455;-75
2024/01/29 06:10:59;;;;;;;9.03;3.73;;;;;;;3.09;100.00;101723.72;5062468;28;20445;-75
2024/01/29 06:13:31;;;;;;;8.73;3.97;;;;;;;3.10;100.00;101773.16;5062312;28;20422;-75
2024/01/29 06:16:04;;;;;;;11.10;4.07;;;;;;;3.53;100.00;101831.41;5064173;28;20447;-75
2024/01/29 06:18:37;;;;;;;6.70;3.60;;;;;;;3.13;100.00;101757.81;5060404;28;20472;-76
2024/01/29 06:21:17;;;;;;;6.20;3.20;;;;;;;2.01;100.00;101583.44;5051236;28;20441;-76
2024/01/29 06:23:50;;;;;;;8.63;3.80;;;;;;;2.15;100.00;101611.44;5049657;28;21191;-76
2024/01/29 06:26:20;;;;;;;7.07;3.50;;;;;;;2.05;100.00;101563.69;5051610;28;20464;-76
2024/01/29 06:28:48;;;;;;;6.43;3.50;;;;;;;2.42;100.00;101640.94;5044702;28;20533;-76
2024/01/29 06:31:18;;;;;;;9.27;3.43;;;;;;;2.68;100.00;101675.84;5043607;28;20570;-76
2024/01/29 06:33:50;;;;;;;8.07;3.87;;;;;;;3.45;100.00;101846.28;5042890;28;20938;-76
2024/01/29 06:36:24;;;;;;;6.53;3.60;;;;;;;3.96;100.00;101968.44;5045318;28;20903;-75
2024/01/29 06:51:54;;;;;;;6.20;3.60;;;;;;;1.80;100.00;101393.75;5084078;27;20556;-76
2024/01/29 06:54:24;;;;;;;6.40;3.43;;;;;;;3.03;100.00;101587.25;5080362;28;20440;-75
2024/01/29 06:56:51;;;;;;;6.70;3.40;;;;;;;2.53;100.00;101526.19;5086637;28;20490;-75
2024/01/29 06:59:25;;;;;;;7.53;3.20;;;;;;;2.94;100.00;101641.06;5079913;28;20456;-75
2024/01/29 07:02:00;;;;;;;7.57;3.80;;;;;;;1.97;100.00;101462.97;5077936;28;20865;-75
2024/01/29 07:04:33;;;;;;;6.60;3.67;;;;;;;1.29;100.00;101354.81;5077086;28;20429;-75
2024/01/29 07:07:04;;;;;;;6.80;3.73;;;;;;;1.33;100.00;101323.66;5078149;28;20439;-75
2024/01/29 07:09:32;;;;;;;8.20;4.50;;;;;;;2.35;100.00;101495.97;5075539;28;20461;-75
2024/01/29 07:12:05;;;;;;;8.43;4.20;;;;;;;3.11;100.00;101613.13;5079312;28;20492;-75
2024/01/29 07:14:36;;;;;;;9.10;3.70;;;;;;;2.09;100.00;101464.56;5081292;28;20531;-75
2024/01/29 07:17:06;;;;;;;8.47;4.20;;;;;;;1.90;100.00;101465.25;5079821;28;20775;-75
2024/01/29 07:19:39;;;;;;;6.83;3.40;;;;;;;3.15;100.00;101641.03;5077961;28;20404;-76
2024/01/29 07:22:14;;;;;;;6.53;3.37;;;;;;;3.26;100.00;101667.47;5082883;28;20433;-76
2024/01/29 07:24:44;;;;;;;6.60;2.67;;;;;;;2.78;100.00;101585.00;5074345;28;20456;-76
2024/01/29 07:27:10;;;;;;;6.77;3.20;;;;;;;2.69;100.00;101582.19;5076090;28;20768;-76
2024/01/29 07:29:42;;;;;;;9.30;4.27;;;;;;;2.03;100.00;101528.59;5075195;28;20460;-76
2024/01/29 07:32:10;;;;;;;7.30;3.77;;;;;;;3.39;100.00;101789.28;5079129;28;20700;-76
2024/01/29 07:34:40;;;;;;;9.60;3.83;;;;;;;1.21;100.00;101464.75;5079235;28;20433;-75
2024/01/29 07:37:13;;;;;;;7.47;3.37;;;;;;;3.07;100.00;101855.59;5077583;28;20894;-75
2024/01/29 07:39:41;;;;;;;7.00;3.70;;;;;;;3.06;100.00;101889.16;5075272;28;20477;-76
2024/01/29 07:42:15;;;;;;;6.70;3.60;;;;;;;2.28;100.00;101883.94;5076905;28;20478;-76
2024/01/29 07:44:47;;;;;;;8.53;3.63;;;;;;;2.35;100.00;101996.38;5075440;28;20527;-76
2024/01/29 07:47:25;;;;;;;12.13;4.87;;;;;;;0.91;100.00;101896.78;5079881;28;20454;-76
2024/01/29 07:50:02;;;;;;;8.63;4.03;;;;;;;4.12;100.00;102532.78;5082364;28;20837;-76
2024/01/29 07:52:30;;;;;;;10.70;4.20;;;;;;;2.70;100.00;102520.91;5066802;28;20976;-75
2024/01/29 07:55:03;;;;;;;7.37;4.07;;;;;;;1.16;100.00;102378.63;5062642;28;20994;-76
2024/01/29 07:57:33;;;;;;;8.23;3.27;;;;;;;2.68;100.00;102859.31;5065942;28;20535;-76
2024/01/29 08:00:04;;;;;;;8.70;5.00;;;;;;;1.15;100.00;102549.59;5067229;28;20434;-76
2024/01/29 08:02:38;;;;;;;7.33;4.13;;;;;;;1.24;100.00;102534.94;5063759;28;20434;-75
2024/01/29 08:05:06;;;;;;;9.00;4.40;;;;;;;1.87;100.00;102684.41;5066304;28;20468;-75
2024/01/29 08:07:35;;;;;;;9.00;3.70;;;;;;;1.12;100.00;102664.28;5066575;28;20461;-75
2024/01/29 08:10:03;;;;;;;10.10;4.50;;;;;;;1.69;100.00;102773.69;5064948;28;20834;-75
2024/01/29 08:12:34;;;;;;;6.80;3.90;;;;;;;1.65;100.00;102753.66;5066005;28;20908;-75
2024/01/29 08:15:07;;;;;;;11.53;4.27;;;;;;;3.50;100.00;103158.19;5060655;28;20425;-75
2024/01/29 08:17:57;;;;;;;;;;;;;;;;;;;;;
2024/01/29 08:20:55;;;;;;;8.15;4.10;;;;;;;2.36;100.00;102952.22;5083847;27;20399;-73
2024/01/29 08:23:23;;;;;;;9.70;4.60;;;;;;;1.96;100.00;102933.44;5080116;28;20189;-73
2024/01/29 08:25:51;;;;;;;10.17;4.70;;;;;;;3.63;100.00;103264.41;5066295;28;20191;-75
2024/01/29 08:28:19;;;;;;;7.07;4.50;;;;;;;1.32;100.00;102906.31;5064337;28;20461;-75
2024/01/29 08:30:55;;;;;;;9.83;4.63;;;;;;;2.07;100.00;103082.84;5064773;28;20440;-75
2024/01/29 08:33:25;;;;;;;7.50;4.60;;;;;;;2.78;100.00;103161.69;5071167;28;20488;-75
2024/01/29 08:35:58;;;;;;;12.83;4.40;;;;;;;1.23;100.00;102956.22;5064912;28;20441;-76
2024/01/29 08:38:31;;;;;;;9.23;5.57;;;;;;;1.80;100.00;102969.72;5066007;28;20515;-76
2024/01/29 08:41:03;;;;;;;15.47;8.53;;;;;;;1.82;100.00;103002.19;5066332;28;20452;-76
2024/01/29 08:46:39;;;;;;;30.20;18.70;;;;;;;3.80;100.00;103341.22;5085490;27;20514;-73
2024/01/29 08:49:08;;;;;;;10.20;5.23;;;;;;;2.19;100.00;103045.06;5075125;28;20671;-73
2024/01/29 08:51:37;;;;;;;8.73;4.90;;;;;;;2.15;100.00;103080.63;5076657;28;20818;-73
2024/01/29 08:54:02;;;;;;;9.47;5.00;;;;;;;4.60;100.00;103447.91;5082231;28;20432;-73
2024/01/29 08:56:29;;;;;;;11.40;5.33;;;;;;;3.91;100.00;103353.84;5085985;28;20448;-73
2024/01/29 08:58:54;;;;;;;10.40;5.87;;;;;;;4.37;100.00;103398.84;5081767;28;20195;-73
2024/01/29 09:01:19;;;;;;;9.20;5.33;;;;;;;3.88;100.00;103321.31;5083269;28;20429;-73
2024/01/29 09:03:45;;;;;;;7.30;3.97;;;;;;;3.97;100.00;103337.53;5080769;28;20183;-73
2024/01/29 09:06:10;;;;;;;9.50;4.60;;;;;;;3.91;100.00;103327.31;5082619;28;20186;-73
2024/01/29 09:08:36;;;;;;;8.03;5.37;;;;;;;4.56;100.00;103440.22;5082969;28;20218;-73
2024/01/29 09:11:01;;;;;;;8.50;4.80;;;;;;;4.26;100.00;103375.59;5078696;28;20179;-73
2024/01/29 09:13:29;;;;;;;8.27;4.53;;;;;;;4.25;100.00;103357.94;5082569;28;20175;-74
2024/01/29 09:15:54;;;;;;;8.10;5.00;;;;;;;4.09;100.00;103330.63;5081672;28;20776;-73
2024/01/29 09:18:20;;;;;;;8.23;4.83;;;;;;;4.50;100.00;103388.28;5083655;28;20473;-73
2024/01/29 09:20:45;;;;;;;11.93;5.00;;;;;;;4.93;100.00;103422.78;5083495;28;20243;-73
2024/01/29 09:23:10;;;;;;;10.67;5.40;;;;;;;4.12;100.00;103293.25;5080627;28;20182;-73
2024/01/29 09:25:36;;;;;;;21.57;14.67;;;;;;;4.97;100.00;103429.59;5081481;28;20182;-73
2024/01/29 09:28:01;;;;;;;12.33;7.50;;;;;;;5.13;100.00;103433.00;5076402;28;20690;-73
2024/01/29 09:30:27;;;;;;;14.13;8.67;;;;;;;4.60;100.00;103327.41;5079877;28;20568;-73
2024/01/29 09:32:52;;;;;;;13.50;7.60;;;;;;;5.33;100.00;103445.00;5078566;28;20191;-73
2024/01/29 09:35:18;;;;;;;12.97;10.27;;;;;;;5.17;100.00;103409.69;5079330;28;20241;-73
2024/01/29 09:37:43;;;;;;;8.40;4.70;;;;;;;4.63;100.00;103333.41;5083135;28;20263;-73
2024/01/29 09:40:15;;;;;;;8.97;4.87;;;;;;;4.59;100.00;103341.66;5075443;28;20199;-73
2024/01/29 09:42:41;;;;;;;8.40;4.97;;;;;;;5.43;100.00;103450.56;5076428;28;20187;-73
2024/01/29 09:45:11;;;;;;;9.20;4.50;;;;;;;5.33;100.00;103445.00;5081518;28;20433;-73
2024/01/29 09:47:38;;;;;;;8.10;4.23;;;;;;;5.28;100.00;103412.50;5095375;28;20464;-74
2024/01/29 09:50:08;;;;;;;8.30;4.10;;;;;;;5.51;100.00;103452.72;5082374;28;20439;-73
2024/01/29 09:52:37;;;;;;;9.53;5.10;;;;;;;5.13;100.00;103393.09;5074689;28;20889;-73
2024/01/29 09:55:04;;;;;;;19.77;6.17;;;;;;;5.42;100.00;103440.88;5079335;28;20468;-73
2024/01/29 09:57:32;;;;;;;11.60;6.10;;;;;;;4.92;100.00;103360.75;5067074;28;20449;-73
2024/01/29 09:59:58;;;;;;;10.40;5.60;;;;;;;4.96;100.00;103332.16;5067415;28;20488;-73
2024/01/29 10:02:25;;;;;;;11.20;6.00;;;;;;;4.46;100.00;103280.47;5062480;28;20437;-73
2024/01/29 10:04:50;;;;;;;12.63;5.93;;;;;;;5.56;100.00;103448.81;5064270;28;20267;-74
2024/01/29 10:07:16;;;;;;;9.30;5.53;;;;;;;5.60;100.00;103431.66;5059160;28;20953;-73
2024/01/29 10:09:41;;;;;;;11.97;5.63;;;;;;;5.09;100.00;103343.69;5064650;28;20368;-73
2024/01/29 10:12:07;;;;;;;10.10;5.73;;;;;;;5.88;100.00;103438.66;5061459;28;20563;-73
2024/01/29 10:15:19;;;;;;;11.70;5.60;;;;;;;5.98;100.00;103440.72;5068256;28;20702;-73
2024/01/29 10:17:45;;;;;;;9.13;5.23;;;;;;;5.32;100.00;103327.97;5067246;28;20221;-73
2024/01/29 10:20:19;;;;;;;9.57;5.60;;;;;;;5.86;100.00;103365.13;5068788;28;20977;-74
2024/01/29 10:22:45;;;;;;;9.70;6.50;;;;;;;5.57;100.00;103301.41;5065461;28;20179;-73
2024/01/29 10:25:15;;;;;;;10.63;5.03;;;;;;;6.38;100.00;103445.94;5060990;28;20433;-73
2024/01/29 10:27:40;;;;;;;13.40;6.33;;;;;;;6.09;100.00;103416.84;5062356;28;20207;-73
2024/01/29 10:30:09;;;;;;;8.37;4.90;;;;;;;6.27;100.00;103444.03;5066006;28;20437;-74
2024/01/29 10:32:37;;;;;;;10.03;5.20;;;;;;;5.87;100.00;103375.69;5067765;28;20209;-73
2024/01/29 10:35:04;;;;;;;10.20;5.80;;;;;;;6.39;100.00;103445.81;5064854;28;20463;-73
2024/01/29 10:37:30;;;;;;;10.10;5.97;;;;;;;6.16;100.00;103410.13;5067875;28;20500;-74
2024/01/29 10:39:55;;;;;;;10.03;5.77;;;;;;;6.04;100.00;103402.97;5065598;28;20441;-73
2024/01/29 10:42:25;;;;;;;9.67;5.33;;;;;;;5.84;100.00;103367.03;5062706;28;20639;-73
2024/01/29 10:44:53;;;;;;;10.63;5.90;;;;;;;6.51;100.00;103455.66;5061719;28;20194;-73
2024/01/29 10:47:31;;;;;;;21.53;14.70;;;;;;;6.17;100.00;103408.34;5065155;28;20453;-73
2024/01/29 10:49:58;;;;;;;18.23;12.40;;;;;;;6.50;100.00;103479.75;5062775;28;20441;-73
2024/01/29 10:52:26;;;;;;;11.17;7.30;;;;;;;6.42;100.00;103445.66;5064949;28;20932;-73
2024/01/29 10:54:52;;;;;;;11.80;6.10;;;;;;;5.87;100.00;103369.47;5060265;28;20468;-73
2024/01/29 10:57:19;;;;;;;9.00;5.60;;;;;;;5.87;100.00;103334.84;5067808;28;20457;-73
2024/01/29 10:59:47;;;;;;;14.10;6.87;;;;;;;6.11;100.00;103340.31;5064418;28;20968;-73
2024/01/29 11:02:16;;;;;;;10.77;5.40;;;;;;;6.74;100.00;103445.16;5066664;28;20437;-73
2024/01/29 11:04:43;;;;;;;9.80;5.33;;;;;;;6.30;100.00;103332.69;5063502;28;20447;-74
2024/01/29 11:07:16;;;;;;;9.90;5.90;;;;;;;6.73;100.00;103433.63;5065008;28;20548;-73
2024/01/29 11:09:55;;;;;;;10.47;6.20;;;;;;;6.67;100.00;103425.22;5066529;28;20428;-73
2024/01/29 11:12:22;;;;;;;11.03;6.70;;;;;;;6.77;100.00;103419.13;5066261;28;20460;-73
2024/01/29 11:15:00;;;;;;;11.70;6.83;;;;;;;6.90;100.00;103443.09;5067833;28;20525;-73
2024/01/29 11:17:27;;;;;;;14.17;10.50;;;;;;;6.82;100.00;103389.44;5067924;28;20460;-73
2024/01/29 11:19:53;;;;;;;10.87;7.43;;;;;;;6.68;100.00;103331.78;5061980;28;20788;-73
2024/01/29 11:22:18;;;;;;;12.00;6.90;;;;;;;6.67;100.00;103347.88;5062129;28;20434;-74
2024/01/29 11:24:46;;;;;;;10.63;5.60;;;;;;;6.62;100.00;103347.34;5058621;28;20262;-73
2024/01/29 11:27:12;;;;;;;10.83;6.20;;;;;;;7.28;100.00;103428.75;5063190;28;20190;-73
2024/01/29 11:29:38;;;;;;;9.83;5.53;;;;;;;6.76;100.00;103344.53;5060640;28;20603;-74
2024/01/29 11:32:05;;;;;;;10.00;6.10;;;;;;;6.96;100.00;103372.41;5066976;28;20532;-73
2024/01/29 11:34:31;;;;;;;12.37;6.03;;;;;;;7.05;100.00;103346.88;5066153;28;20579;-73
2024/01/29 11:36:57;;;;;;;10.37;6.27;;;;;;;7.22;100.00;103351.78;5056175;28;20461;-73
2024/01/29 11:39:24;;;;;;;10.67;6.40;;;;;;;7.01;100.00;103325.75;5058306;28;20198;-73
2024/01/29 11:41:52;;;;;;;15.80;6.63;;;;;;;7.02;100.00;103356.78;5060940;28;20429;-73
2024/01/29 11:44:18;;;;;;;12.70;6.57;;;;;;;7.53;100.00;103349.47;5066197;28;20426;-73
2024/01/29 11:46:44;;;;;;;11.13;6.80;;;;;;;7.35;100.00;103311.69;5065487;28;20489;-74
2024/01/29 11:49:09;;;;;;;11.70;6.43;;;;;;;6.86;100.00;103270.88;5062612;28;20995;-74
2024/01/29 11:51:36;;;;;;;13.33;6.23;;;;;;;6.91;100.00;103314.03;5054952;28;20437;-74
2024/01/29 11:54:02;;;;;;;10.40;6.60;;;;;;;7.67;100.00;103414.22;5059810;28;20179;-74
2024/01/29 11:56:28;;;;;;;11.30;7.03;;;;;;;7.63;100.00;103406.56;5063121;28;20461;-74
2024/01/29 11:59:04;;;;;;;12.63;7.53;;;;;;;7.67;100.00;103435.59;5058257;28;21017;-74
2024/01/29 12:01:33;;;;;;;12.17;7.27;;;;;;;7.73;100.00;103450.31;5064461;28;20233;-74
2024/01/29 12:03:59;;;;;;;12.13;7.60;;;;;;;7.79;100.00;103465.88;5069899;28;20989;-74
2024/01/29 12:06:25;;;;;;;11.63;7.80;;;;;;;7.76;100.00;103446.56;5066351;28;20449;-74
2024/01/29 12:08:53;;;;;;;11.50;7.13;;;;;;;7.40;100.00;103392.28;5058530;28;20484;-74